createdAt,value
2023-08-25T05:40:01.363Z,98117.63
2023-08-25T05:48:26.852Z,98082.19
2023-08-25T05:50:54.269Z,98099.81
2023-08-25T05:53:21.776Z,98129.13
2023-08-25T05:55:51.738Z,98139.56
2023-08-25T06:32:49.073Z,98412.84
2023-08-25T06:48:03.786Z,98405.34
2023-08-25T06:50:31.742Z,98409.50
2023-08-25T07:06:02.328Z,98462.31
2023-08-25T07:08:29.792Z,98448.53
2023-08-25T07:18:05.062Z,98414.19
2023-08-25T07:20:32.665Z,98439.88
2023-08-25T07:23:00.478Z,98463.19
2023-08-25T07:25:28.090Z,98470.00
2023-08-25T07:27:55.821Z,98489.53
2023-08-25T07:30:23.680Z,98476.19
2023-08-25T07:32:54.227Z,98466.53
2023-08-25T07:35:21.784Z,98442.19
2023-08-25T07:37:50.921Z,98425.66
2023-08-25T07:40:20.772Z,98429.13
2023-08-25T07:42:49.903Z,98417.69
2023-08-25T07:45:17.602Z,98416.22
2023-08-25T07:47:45.186Z,98406.53
2023-08-25T07:50:12.641Z,98406.59
2023-08-25T07:52:40.174Z,98402.97
2023-08-25T07:55:08.156Z,98403.75
2023-08-25T07:57:36.548Z,98403.88
2023-08-25T08:00:07.438Z,98405.22
2023-08-25T08:02:34.963Z,98416.94
2023-08-25T08:05:02.401Z,98399.09
2023-08-25T08:07:29.933Z,98390.97
2023-08-25T08:09:57.390Z,98395.28
2023-08-25T08:12:24.812Z,98400.22
2023-08-25T08:14:52.272Z,98407.06
2023-08-25T08:17:21.492Z,98401.28
2023-08-25T08:19:49.462Z,98406.41
2023-08-25T08:22:18.611Z,98418.59
2023-08-25T08:24:51.083Z,98422.63
2023-08-25T08:27:20.294Z,98425.56
2023-08-25T08:29:49.195Z,98423.84
2023-08-25T08:32:17.732Z,98420.25
2023-08-25T08:34:45.659Z,98431.19
2023-08-25T08:37:13.177Z,98415.25
2023-08-25T08:39:40.682Z,98427.72
2023-08-25T08:42:11.382Z,98453.06
2023-08-25T08:44:41.432Z,98451.19
2023-08-25T08:47:10.912Z,98451.44
2023-08-25T08:49:39.473Z,98450.50
2023-08-25T08:52:08.160Z,98448.41
2023-08-25T08:54:42.775Z,98453.47
2023-08-25T08:57:10.330Z,98464.34
2023-08-25T08:59:37.802Z,98474.38
2023-08-25T09:02:06.653Z,98478.38
2023-08-25T09:04:38.735Z,98470.09
2023-08-25T09:07:08.184Z,98456.06
2023-08-25T09:09:35.723Z,98463.75
2023-08-25T09:12:03.542Z,98472.97
2023-08-25T09:14:31.527Z,98471.34
2023-08-25T09:17:03.455Z,98484.22
2023-08-25T09:19:33.699Z,98482.09
2023-08-25T09:22:02.754Z,98492.59
2023-08-25T09:24:31.697Z,98500.31
2023-08-25T09:26:59.222Z,98500.31
2023-08-25T09:29:27.698Z,98502.88
2023-08-25T09:31:55.205Z,98501.34
2023-08-25T09:34:23.201Z,98495.63
2023-08-25T09:36:57.852Z,98505.72
2023-08-25T09:39:26.073Z,98500.72
2023-08-25T09:41:53.693Z,98490.50
2023-08-25T09:44:21.155Z,98487.09
2023-08-25T09:46:51.336Z,98495.41
2023-08-25T09:49:18.837Z,98499.84
2023-08-25T09:51:49.651Z,98495.19
2023-08-25T09:54:20.269Z,98490.38
2023-08-25T09:56:49.415Z,98497.31
2023-08-25T09:59:17.822Z,98491.97
2023-08-25T10:01:47.143Z,98488.66
2023-08-25T10:04:15.142Z,98485.00
2023-08-25T10:06:42.928Z,98485.59
2023-08-25T10:09:10.874Z,98495.09
2023-08-25T10:11:49.824Z,98495.19
2023-08-25T10:14:18.457Z,98494.63
2023-08-25T10:16:54.015Z,98489.09
2023-08-25T10:19:32.773Z,98488.97
2023-08-25T10:22:03.173Z,98504.41
2023-08-25T10:24:32.971Z,98494.41
2023-08-25T10:27:01.380Z,98496.06
2023-08-25T10:29:30.216Z,98482.88
2023-08-25T10:32:04.195Z,98484.88
2023-08-25T10:34:47.442Z,98488.72
2023-08-25T10:37:25.813Z,98476.59
2023-08-25T10:40:00.844Z,98475.03
2023-08-25T10:42:35.135Z,98480.28
2023-08-25T10:45:12.394Z,98470.78
2023-08-25T10:47:48.828Z,98464.09
2023-08-25T10:50:23.857Z,98446.22
2023-08-25T10:52:54.063Z,98443.06
2023-08-25T10:55:31.161Z,98425.78
2023-08-25T10:58:08.532Z,98408.97
2023-08-25T11:00:44.870Z,98389.19
2023-08-25T11:03:12.841Z,98382.56
2023-08-25T11:05:45.207Z,98364.22
2023-08-25T11:08:29.750Z,98362.78
2023-08-25T11:11:16.546Z,98344.25
2023-08-25T11:13:44.730Z,98333.28
2023-08-25T11:16:14.721Z,98325.88
2023-08-25T11:18:44.251Z,98309.03
2023-08-25T11:21:12.279Z,98301.69
2023-08-25T11:23:43.826Z,98283.00
2023-08-25T11:26:18.971Z,98272.34
2023-08-25T11:28:52.244Z,98263.75
2023-08-25T11:31:24.938Z,98254.03
2023-08-25T11:33:53.929Z,98221.22
2023-08-25T11:36:26.311Z,98199.25
2023-08-25T11:38:54.220Z,98159.03
2023-08-25T11:41:24.392Z,98109.94
2023-08-25T11:43:51.865Z,98062.94
2023-08-25T11:46:20.499Z,98075.59
2023-08-25T11:48:54.932Z,98062.06
2023-08-25T11:51:22.401Z,98069.25
2023-08-25T11:53:49.987Z,98079.16
2023-08-25T11:56:20.788Z,98073.94
2023-08-25T11:58:51.808Z,98085.06
2023-08-25T12:01:19.422Z,98081.38
2023-08-25T12:03:48.396Z,98071.53
2023-08-25T12:06:16.679Z,98081.34
2023-08-25T12:08:44.171Z,98078.25
2023-08-25T12:11:12.227Z,98066.28
2023-08-25T12:13:48.676Z,98081.38
2023-08-25T12:16:20.192Z,98073.34
2023-08-25T12:18:53.331Z,98076.94
2023-08-25T12:21:21.012Z,98081.78
2023-08-25T12:23:48.498Z,98102.09
2023-08-25T12:26:15.956Z,98097.72
2023-08-25T12:28:44.758Z,98100.91
2023-08-25T12:31:12.386Z,98086.72
2023-08-25T12:33:39.989Z,98105.84
2023-08-25T12:36:08.080Z,98079.91
2023-08-25T12:38:35.556Z,98089.75
2023-08-25T12:41:03.282Z,98089.56
2023-08-25T12:43:30.803Z,98078.03
2023-08-25T12:45:58.547Z,98075.38
2023-08-25T12:48:25.994Z,98084.13
2023-08-25T12:50:53.558Z,98058.75
2023-08-25T12:53:21.467Z,97995.72
2023-08-25T12:55:48.998Z,97993.63
2023-08-25T12:58:16.631Z,98038.38
2023-08-25T13:00:44.286Z,98055.47
2023-08-25T13:03:11.932Z,98081.91
2023-08-25T13:05:39.642Z,98092.59
2023-08-25T13:08:07.321Z,98089.00
2023-08-25T13:10:34.812Z,98058.41
2023-08-25T13:13:02.271Z,98036.81
2023-08-25T13:15:32.225Z,98066.97
2023-08-25T13:18:01.272Z,98080.69
2023-08-25T13:20:29.222Z,98093.34
2023-08-25T13:22:57.617Z,98101.69
2023-08-25T13:25:26.359Z,98103.97
2023-08-25T13:27:55.192Z,98124.19
2023-08-25T13:30:23.628Z,98127.16
2023-08-25T13:32:52.073Z,98134.00
2023-08-25T13:35:19.737Z,98128.47
2023-08-25T13:37:47.197Z,98142.91
2023-08-25T13:40:14.715Z,98146.03
2023-08-25T13:42:42.262Z,98146.16
2023-08-25T13:45:11.020Z,98151.16
2023-08-25T13:47:38.665Z,98160.44
2023-08-25T13:50:07.783Z,98133.88
2023-08-25T13:52:35.827Z,98134.59
2023-08-25T13:55:04.190Z,98145.44
2023-08-25T13:57:32.391Z,98122.72
2023-08-25T14:00:00.501Z,98125.34
2023-08-25T14:02:28.138Z,98123.84
2023-08-25T14:04:55.753Z,98133.41
2023-08-25T14:07:23.249Z,98092.59
2023-08-25T14:09:50.961Z,98089.91
2023-08-25T14:12:18.906Z,98082.78
2023-08-25T14:14:47.035Z,98047.16
2023-08-25T14:17:14.833Z,98069.63
2023-08-25T14:19:42.368Z,98071.94
2023-08-25T14:22:09.873Z,98078.69
2023-08-25T14:24:37.742Z,98063.56
2023-08-25T14:27:05.435Z,98049.56
2023-08-25T14:29:32.965Z,98049.69
2023-08-25T14:32:00.443Z,98051.28
2023-08-25T14:34:30.218Z,98053.47
2023-08-25T14:36:57.859Z,98043.34
2023-08-25T14:39:25.374Z,98035.00
2023-08-25T14:41:58.249Z,98024.28
2023-08-25T14:44:26.379Z,98028.84
2023-08-25T14:46:54.025Z,98021.03
2023-08-25T14:49:21.611Z,98026.22
2023-08-25T14:51:49.164Z,98030.41
2023-08-25T14:54:16.809Z,98030.44
2023-08-25T14:56:44.294Z,98007.06
2023-08-25T14:59:11.960Z,97982.72
2023-08-25T15:01:39.636Z,97989.94
2023-08-25T15:04:07.640Z,98011.19
2023-08-25T15:06:35.218Z,98033.84
2023-08-25T15:09:02.748Z,98036.09
2023-08-25T15:11:30.291Z,98029.72
2023-08-25T15:13:57.988Z,98021.16
2023-08-25T15:16:25.602Z,98029.34
2023-08-25T15:18:53.192Z,98045.13
2023-08-25T15:21:20.775Z,98044.56
2023-08-25T15:23:49.533Z,98072.25
2023-08-25T15:26:17.310Z,98063.28
2023-08-25T15:28:44.813Z,98060.88
2023-08-25T15:31:14.460Z,98037.13
2023-08-25T15:33:42.875Z,98026.00
2023-08-25T15:36:13.450Z,98038.03
2023-08-25T15:38:41.377Z,98058.84
2023-08-25T15:41:13.959Z,98064.53
2023-08-25T15:43:42.326Z,97994.97
2023-08-25T15:46:10.275Z,98016.66
2023-08-25T15:48:37.928Z,98034.00
2023-08-25T15:51:06.619Z,98003.44
2023-08-25T15:53:34.117Z,98023.50
2023-08-25T15:56:02.279Z,98032.56
2023-08-25T15:58:29.832Z,98046.50
2023-08-25T16:01:02.963Z,98019.56
2023-08-25T16:03:31.384Z,98039.72
2023-08-25T16:06:06.597Z,98033.09
2023-08-25T16:08:34.501Z,98045.53
2023-08-25T16:11:11.330Z,98055.31
2023-08-25T16:13:39.737Z,97986.94
2023-08-25T16:16:07.573Z,97991.38
2023-08-25T16:18:36.435Z,97971.84
2023-08-25T16:21:06.603Z,97942.25
2023-08-25T16:23:37.183Z,98014.56
2023-08-25T16:26:05.726Z,98023.38
2023-08-25T16:28:34.393Z,97976.91
2023-08-25T16:31:05.590Z,97988.88
2023-08-25T16:33:37.024Z,98002.34
2023-08-25T16:36:05.591Z,98026.03
2023-08-25T16:38:33.806Z,98045.00
2023-08-25T16:41:01.301Z,98051.75
2023-08-25T16:43:28.857Z,98051.28
2023-08-25T16:45:56.334Z,98051.31
2023-08-25T16:48:24.121Z,98006.56
2023-08-25T16:50:52.214Z,98055.44
2023-08-25T16:53:20.884Z,98075.19
2023-08-25T16:55:48.406Z,98016.56
2023-08-25T16:58:15.964Z,98056.78
2023-08-25T17:00:44.721Z,98044.56
2023-08-25T17:03:12.626Z,98042.84
2023-08-25T17:05:40.189Z,98046.00
2023-08-25T17:08:09.514Z,98038.34
2023-08-25T17:10:37.665Z,98038.31
2023-08-25T17:13:05.450Z,98037.09
2023-08-25T17:15:38.290Z,98018.41
2023-08-25T17:18:06.624Z,98036.31
2023-08-25T17:20:34.296Z,98038.81
2023-08-25T17:23:01.965Z,98031.56
2023-08-25T17:25:30.558Z,98022.47
2023-08-25T17:27:58.679Z,98044.88
2023-08-25T17:30:26.223Z,98040.38
2023-08-25T17:32:55.337Z,98046.03
2023-08-25T17:35:23.047Z,98045.25
2023-08-25T17:37:50.839Z,98049.78
2023-08-25T17:40:18.346Z,98057.16
2023-08-25T17:42:45.813Z,98052.63
2023-08-25T17:45:13.324Z,98055.44
2023-08-25T17:47:40.878Z,98066.72
2023-08-25T17:50:09.021Z,98071.88
2023-08-25T17:52:36.523Z,98084.22
2023-08-25T17:55:04.521Z,98074.53
2023-08-25T17:57:33.440Z,98076.09
2023-08-25T18:00:01.269Z,98068.88
2023-08-25T18:02:28.806Z,98056.19
2023-08-25T18:04:56.304Z,98050.84
2023-08-25T18:07:23.816Z,98061.69
2023-08-25T18:09:51.564Z,98049.31
2023-08-25T18:12:19.083Z,98027.22
2023-08-25T18:14:46.529Z,98023.16
2023-08-25T18:17:14.055Z,98028.78
2023-08-25T18:19:41.485Z,98028.47
2023-08-25T18:22:09.083Z,98021.13
2023-08-25T18:24:38.246Z,98012.34
2023-08-25T18:27:06.128Z,98011.09
2023-08-25T18:29:33.590Z,98012.81
2023-08-25T18:32:02.729Z,98027.22
2023-08-25T18:34:30.518Z,98015.31
2023-08-25T18:36:58.051Z,98019.06
2023-08-25T18:39:25.698Z,98018.31
2023-08-25T18:41:53.196Z,98022.38
2023-08-25T18:44:20.781Z,98021.56
2023-08-25T18:46:48.248Z,98013.44
2023-08-25T18:49:15.749Z,98008.88
2023-08-25T18:51:45.002Z,97998.72
2023-08-25T18:54:12.525Z,97998.84
2023-08-25T18:56:39.982Z,98011.38
2023-08-25T18:59:07.472Z,98009.50
2023-08-25T19:01:35.289Z,98016.06
2023-08-25T19:04:04.018Z,98010.25
2023-08-25T19:06:31.588Z,98017.28
2023-08-25T19:08:59.029Z,98029.66
2023-08-25T19:11:26.803Z,98039.69
2023-08-25T19:13:54.546Z,98032.31
2023-08-25T19:16:22.176Z,98040.91
2023-08-25T19:18:49.849Z,98045.75
2023-08-25T19:21:17.513Z,98053.06
2023-08-25T19:23:44.990Z,98064.47
2023-08-25T19:26:15.015Z,98071.09
2023-08-25T19:28:43.344Z,98078.13
2023-08-25T19:31:17.373Z,98079.47
2023-08-25T19:33:45.613Z,98091.56
2023-08-25T19:36:15.826Z,98095.09
2023-08-25T19:38:43.823Z,98096.53
2023-08-25T19:41:11.571Z,98093.09
2023-08-25T19:43:41.112Z,98095.78
2023-08-25T19:46:08.617Z,98100.28
2023-08-25T19:48:41.961Z,98089.03
2023-08-25T19:51:09.685Z,98089.50
2023-08-25T19:53:39.433Z,98084.31
2023-08-25T19:56:07.688Z,98077.28
2023-08-25T19:58:35.177Z,98086.50
2023-08-25T20:01:04.141Z,98095.69
2023-08-25T20:03:31.912Z,98101.94
2023-08-25T20:06:06.519Z,98104.44
2023-08-25T20:08:39.389Z,98095.22
2023-08-25T20:11:09.615Z,98097.06
2023-08-25T20:13:37.698Z,98094.25
2023-08-25T20:16:06.265Z,98101.94
2023-08-25T20:18:34.973Z,98112.47
2023-08-25T20:21:02.716Z,98125.22
2023-08-25T20:23:30.210Z,98107.59
2023-08-25T20:25:57.740Z,98104.31
2023-08-25T20:28:25.512Z,98119.50
2023-08-25T20:30:53.508Z,98130.84
2023-08-25T20:33:22.420Z,98121.53
2023-08-25T20:35:51.186Z,98121.97
2023-08-25T20:38:18.689Z,98116.03
2023-08-25T20:40:47.811Z,98132.88
2023-08-25T20:43:15.288Z,98129.81
2023-08-25T20:45:48.681Z,98143.22
2023-08-25T20:48:17.131Z,98157.97
2023-08-25T20:50:50.858Z,98165.16
2023-08-25T20:53:19.022Z,98147.28
2023-08-25T20:55:46.623Z,98145.50
2023-08-25T20:58:14.090Z,98151.41
2023-08-25T21:00:41.512Z,98128.56
2023-08-25T21:03:09.050Z,98131.50
2023-08-25T21:05:36.651Z,98129.66
2023-08-25T21:08:04.447Z,98135.28
2023-08-25T21:10:31.913Z,98136.03
2023-08-25T21:13:00.348Z,98121.84
2023-08-25T21:15:28.420Z,98116.59
2023-08-25T21:17:55.962Z,98104.91
2023-08-25T21:20:26.120Z,98103.84
2023-08-25T21:22:54.903Z,98109.09
2023-08-25T21:25:22.654Z,98109.38
2023-08-25T21:27:50.083Z,98108.50
2023-08-25T21:30:17.733Z,98115.53
2023-08-25T21:32:45.472Z,98117.50
2023-08-25T21:35:12.976Z,98120.13
2023-08-25T21:37:40.529Z,98120.66
2023-08-25T21:40:09.657Z,98109.78
2023-08-25T21:42:37.101Z,98110.53
2023-08-25T21:45:05.175Z,98112.53
2023-08-25T21:47:32.746Z,98107.44
2023-08-25T21:50:03.367Z,98114.91
2023-08-25T21:52:31.173Z,98119.09
2023-08-25T21:54:58.622Z,98127.59
